Impacts METAR Board INFO
IDs:

KCVG - Cincinnati Intl, KY, US

Updated at: 0118 UTC 19 Nov 2017
Potential Impact None Slight Moderate High
Time18/13Z 18/14Z 18/15Z 18/16Z 18/17Z 18/18Z 18/19Z 18/20Z 18/21Z 18/22Z 18/23Z 19/00Z 19/01Z
VIS10 10 10 10 10 10 10 10 10 2 5 10 10
CIG26 25 23 21 20 18 20 20 20 13 75 8 12
CoverOVCOVCOVCOVCOVCOVCOVCOVCOVCOVCOVCOVCOVC
FltCatMVFRMVFRMVFRMVFRMVFRMVFRMVFRMVFRMVFRIFRMVFRIFRMVFR
WX------------------+RA BR-RA BR----
WDir200210210200210210200210200280190300310
WSpd17 15 14 19 14 25 25 17 15 18 15 25 20
WGst26 27 27 32 34 40 37 35 27 -- 24 33 30
Raw hourly METARs
KCVG 181252Z 20017G26KT 10SM BKN026 OVC028 15/10 A2955 RMK AO2 PK WND 19030/1233 SLP002 T01500100
KCVG 181352Z 21015G27KT 10SM BKN025 OVC026 15/10 A2953 RMK AO2 PK WND 22028/1342 SLP997 T01500100
KCVG 181452Z 21014G27KT 10SM BKN023 OVC025 16/12 A2950 RMK AO2 PK WND 20031/1407 SLP987 T01560117 56026
KCVG 181552Z 20019G32KT 10SM BKN021 OVC022 16/13 A2946 RMK AO2 PK WND 21032/1544 SLP973 T01610128
KCVG 181652Z 21014G34KT 10SM BKN020 OVC021 17/14 A2940 RMK AO2 PK WND 19038/1642 PRESFR SLP950 T01720139
KCVG 181752Z 21025G40KT 10SM BKN018 OVC020 18/14 A2933 RMK AO2 PK WND 19043/1742 SLP925 T01780144 10178 20150 58058
KCVG 181852Z 20025G37KT 10SM BKN020 OVC024 18/14 A2929 RMK AO2 PK WND 20042/1809 SLP912 T01830144
KCVG 181952Z 21017G35KT 10SM BKN020 OVC021 18/14 A2930 RMK AO2 PK WND 22038/1909 SLP914 T01830144
KCVG 182052Z 20015G27KT 10SM BKN020 OVC021 18/15 A2927 RMK AO2 PK WND 22035/1959 LTG DSNT NW SLP907 T01780150 56018
KCVG 182202Z 28018KT 2SM R18C/3000VP6000FT +RA BR FEW008 BKN013 OVC020 16/16 A2927 RMK AO2 P0011 T01610161
KCVG 182252Z 19015G24KT 5SM -RA BR FEW019 BKN075 OVC090 16/16 A2925 RMK AO2 SLP899 P0051 T01610161
KCVG 182352Z 30025G33KT 10SM SCT006 BKN008 OVC014 11/11 A2932 RMK AO2 PK WND 30033/2339 WSHFT 2319 RAE02 PRESRR SLP926 P0001 60071 T01060106 10183 20106 53018
KCVG 190052Z 31020G30KT 10SM SCT008 BKN012 OVC014 08/07 A2942 RMK AO2 PK WND 29034/2354 RAB08E29 PRESRR SLP959 P0000 T00780072